Terminal Aerodrome Forecast
Issued by NWS

Home | Current Version | Previous Version | Text Only | Print | Product List | Glossary On
Versions: 1 2 3 4 5 6 7 8 9 10 11 12 13 14 15 16 17 18 19 20 21
000
FTAK31 PANC 041122
TAFADU
TAF
PADU 041122Z 0412/0512 16016G24KT P6SM -SHRA SCT025 OVC040
     FM042000 16017G25KT 5SM -RA BR SCT015 OVC025
     FM050300 16010G18KT 5SM -RA BR OVC015
     FM050900 24010KT P6SM VCSH BKN035=

USA.gov is the U.S. government's official web portal to all federal, state and local government web resources and services.